createdAt,value
2023-01-29T00:02:12.897Z,101138.94
2023-01-29T00:05:27.404Z,101139.31
2023-01-29T00:08:30.857Z,101147.38
2023-01-29T00:11:33.620Z,101152.25
2023-01-29T00:14:36.599Z,101145.75
2023-01-29T00:17:39.406Z,101145.16
2023-01-29T00:20:44.005Z,101148.97
2023-01-29T00:23:46.929Z,101148.41
2023-01-29T00:26:50.358Z,101145.97
2023-01-29T00:30:09.440Z,101147.97
2023-01-29T00:33:13.464Z,101153.13
2023-01-29T00:36:18.360Z,101156.13
2023-01-29T00:39:31.482Z,101157.72
2023-01-29T00:42:58.352Z,101162.94
2023-01-29T00:46:00.848Z,101165.97
2023-01-29T00:49:04.796Z,101167.19
2023-01-29T00:52:25.869Z,101169.81
2023-01-29T00:55:28.558Z,101173.81
2023-01-29T00:58:34.196Z,101170.41
2023-01-29T01:01:55.468Z,101172.81
2023-01-29T01:04:58.421Z,101184.88
2023-01-29T01:08:01.359Z,101176.13
2023-01-29T01:11:06.384Z,101179.50
2023-01-29T01:14:09.797Z,101173.22
2023-01-29T01:17:12.215Z,101183.63
2023-01-29T01:20:15.922Z,101188.41
2023-01-29T01:23:19.700Z,101187.63
2023-01-29T01:26:22.319Z,101183.19
2023-01-29T01:29:25.163Z,101194.84
2023-01-29T01:32:27.981Z,101191.94
2023-01-29T01:35:30.821Z,101184.47
2023-01-29T01:38:34.165Z,101190.06
2023-01-29T01:41:36.782Z,101189.47
2023-01-29T01:45:18.004Z,101193.69
2023-01-29T01:48:26.524Z,101181.16
2023-01-29T01:51:32.961Z,101193.94
2023-01-29T01:54:35.672Z,101192.06
2023-01-29T01:57:38.656Z,101192.28
2023-01-29T02:00:41.923Z,101197.09
2023-01-29T02:04:20.788Z,101193.09
2023-01-29T02:07:42.355Z,101197.09
2023-01-29T02:10:47.923Z,101206.41
2023-01-29T02:13:53.650Z,101206.81
2023-01-29T02:17:01.869Z,101204.00
2023-01-29T02:20:21.061Z,101205.16
2023-01-29T02:23:55.765Z,101209.59
2023-01-29T02:27:22.148Z,101211.22
2023-01-29T02:30:37.660Z,101227.06
2023-01-29T02:33:53.804Z,101220.75
2023-01-29T02:37:11.456Z,101216.75
2023-01-29T02:40:25.350Z,101212.13
2023-01-29T02:43:42.790Z,101226.41
2023-01-29T02:46:45.192Z,101232.03
2023-01-29T02:49:55.874Z,101230.56
2023-01-29T02:53:13.066Z,101237.03
2023-01-29T02:56:27.310Z,101233.03
2023-01-29T02:59:38.281Z,101236.44
2023-01-29T03:02:52.560Z,101239.38
2023-01-29T03:06:08.796Z,101241.19
2023-01-29T03:09:42.477Z,101242.34
2023-01-29T03:12:51.739Z,101247.59
2023-01-29T03:16:04.986Z,101248.97
2023-01-29T03:19:20.575Z,101246.41
2023-01-29T03:22:25.625Z,101248.81
2023-01-29T03:25:47.298Z,101254.00
2023-01-29T03:29:11.534Z,101251.44
2023-01-29T03:32:16.114Z,101256.25
2023-01-29T03:35:36.932Z,101257.22
2023-01-29T03:38:41.024Z,101254.38
2023-01-29T03:41:56.260Z,101249.31
2023-01-29T03:45:14.234Z,101248.72
2023-01-29T03:48:34.214Z,101250.97
2023-01-29T03:51:50.936Z,101249.94
2023-01-29T03:55:01.460Z,101254.53
2023-01-29T03:58:37.118Z,101251.97
2023-01-29T04:01:42.839Z,101247.97
2023-01-29T04:04:50.213Z,101247.75
2023-01-29T04:07:58.502Z,101246.72
2023-01-29T04:11:09.533Z,101245.34
2023-01-29T04:14:14.347Z,101250.16
2023-01-29T04:17:22.838Z,101242.31
2023-01-29T04:20:38.268Z,101240.47
2023-01-29T04:23:40.978Z,101239.53
2023-01-29T04:27:08.900Z,101236.91
2023-01-29T04:30:17.578Z,101238.22
2023-01-29T04:33:25.354Z,101242.34
2023-01-29T04:37:02.660Z,101239.34
2023-01-29T04:40:33.324Z,101240.50
2023-01-29T04:43:47.288Z,101246.97
2023-01-29T04:47:05.275Z,101241.81
2023-01-29T04:50:22.372Z,101229.38
2023-01-29T04:54:02.875Z,101241.91
2023-01-29T04:57:25.847Z,101236.75
2023-01-29T05:00:33.988Z,101231.72
2023-01-29T05:03:39.260Z,101224.34
2023-01-29T05:06:43.627Z,101224.81
2023-01-29T05:09:47.772Z,101224.34
2023-01-29T05:13:00.681Z,101228.78
2023-01-29T05:16:12.069Z,101233.97
2023-01-29T05:19:16.486Z,101230.84
2023-01-29T05:22:22.740Z,101223.53
2023-01-29T05:25:29.319Z,101225.53
2023-01-29T05:28:32.134Z,101230.94
2023-01-29T05:31:34.786Z,101240.38
2023-01-29T05:34:37.703Z,101237.34
2023-01-29T05:37:40.363Z,101237.97
2023-01-29T05:40:55.152Z,101240.06
2023-01-29T05:43:58.608Z,101240.06
2023-01-29T05:47:02.862Z,101239.41
2023-01-29T05:50:06.769Z,101248.88
2023-01-29T05:53:09.949Z,101253.09
2023-01-29T05:56:14.295Z,101262.78
2023-01-29T05:59:17.181Z,101263.59
2023-01-29T06:02:21.695Z,101271.25
2023-01-29T06:05:24.070Z,101275.66
2023-01-29T06:08:27.380Z,101271.63
2023-01-29T06:11:30.245Z,101286.34
2023-01-29T06:14:32.962Z,101287.59
2023-01-29T06:17:35.810Z,101284.53
2023-01-29T06:20:39.903Z,101300.47
2023-01-29T06:23:42.608Z,101293.19
2023-01-29T06:26:45.615Z,101296.56
2023-01-29T06:29:48.117Z,101301.59
2023-01-29T06:32:51.440Z,101296.75
2023-01-29T06:36:01.793Z,101307.41
2023-01-29T06:39:05.396Z,101308.13
2023-01-29T06:42:08.648Z,101301.19
2023-01-29T06:45:11.997Z,101300.78
2023-01-29T06:48:14.632Z,101307.81
2023-01-29T06:51:17.774Z,101308.97
2023-01-29T06:54:20.616Z,101298.50
2023-01-29T06:57:24.129Z,101306.91
2023-01-29T07:00:26.813Z,101307.69
2023-01-29T07:03:29.853Z,101296.22
2023-01-29T07:06:32.754Z,101297.41
2023-01-29T07:09:35.493Z,101288.94
2023-01-29T07:12:38.133Z,101294.28
2023-01-29T07:15:40.796Z,101289.31
2023-01-29T07:18:43.795Z,101296.13
2023-01-29T07:21:46.672Z,101292.41
2023-01-29T07:24:49.519Z,101288.19
2023-01-29T07:27:52.787Z,101285.88
2023-01-29T07:30:57.989Z,101290.25
2023-01-29T07:34:01.233Z,101293.03
2023-01-29T07:37:03.927Z,101297.16
2023-01-29T07:40:11.365Z,101297.34
2023-01-29T07:43:14.635Z,101296.31
2023-01-29T07:46:17.835Z,101293.25
2023-01-29T07:49:20.795Z,101297.19
2023-01-29T07:52:24.117Z,101284.03
2023-01-29T07:55:26.839Z,101296.22
2023-01-29T07:58:29.692Z,101296.59
2023-01-29T08:01:32.524Z,101289.84
2023-01-29T08:04:35.360Z,101289.31
2023-01-29T08:07:37.744Z,101296.97
2023-01-29T08:10:42.683Z,101294.88
2023-01-29T08:13:46.712Z,101295.63
2023-01-29T08:16:49.984Z,101287.13
2023-01-29T08:19:52.959Z,101301.00
2023-01-29T08:23:00.917Z,101300.06
2023-01-29T08:26:03.948Z,101313.38
2023-01-29T08:29:07.132Z,101311.19
2023-01-29T08:32:11.293Z,101319.44
2023-01-29T08:35:14.170Z,101317.72
2023-01-29T08:38:17.774Z,101320.25
2023-01-29T08:41:20.915Z,101324.22
2023-01-29T08:44:23.592Z,101333.63
2023-01-29T08:47:28.057Z,101330.19
2023-01-29T08:50:32.454Z,101328.63
2023-01-29T08:53:35.283Z,101327.00
2023-01-29T08:56:38.152Z,101323.19
2023-01-29T08:59:41.092Z,101327.44
2023-01-29T09:02:44.044Z,101327.31
2023-01-29T09:05:47.121Z,101333.72
2023-01-29T09:08:49.940Z,101339.78
2023-01-29T09:11:53.094Z,101340.25
2023-01-29T09:14:55.900Z,101346.44
2023-01-29T09:17:58.705Z,101352.19
2023-01-29T09:21:02.746Z,101344.63
2023-01-29T09:24:06.492Z,101347.94
2023-01-29T09:27:10.909Z,101353.06
2023-01-29T09:30:14.662Z,101354.00
2023-01-29T09:33:18.491Z,101362.25
2023-01-29T09:36:21.346Z,101355.97
2023-01-29T09:39:23.935Z,101347.88
2023-01-29T09:42:42.313Z,101353.34
2023-01-29T09:45:58.739Z,101363.84
2023-01-29T09:49:12.240Z,101360.28
2023-01-29T09:52:22.427Z,101353.88
2023-01-29T09:55:30.018Z,101351.84
2023-01-29T09:58:35.976Z,101350.00
2023-01-29T10:01:55.517Z,101358.25
2023-01-29T10:04:58.143Z,101363.06
2023-01-29T10:08:03.861Z,101357.81
2023-01-29T10:11:33.175Z,101350.84
2023-01-29T10:15:00.853Z,101354.00
2023-01-29T10:18:45.081Z,101362.13
2023-01-29T10:21:53.457Z,101362.59
2023-01-29T10:25:05.752Z,101351.53
2023-01-29T10:28:46.740Z,101354.81
2023-01-29T10:31:57.135Z,101344.09
2023-01-29T10:35:46.747Z,101341.13
2023-01-29T10:38:51.547Z,101333.25
2023-01-29T10:42:24.825Z,101325.50
2023-01-29T10:45:46.302Z,101324.78
2023-01-29T10:49:00.703Z,101316.00
2023-01-29T10:52:18.240Z,101322.84
2023-01-29T10:55:51.762Z,101318.72
2023-01-29T10:59:22.639Z,101305.00
2023-01-29T11:02:25.685Z,101301.25
2023-01-29T11:05:41.328Z,101295.88
2023-01-29T11:08:54.095Z,101288.13
2023-01-29T11:12:05.468Z,101298.19
2023-01-29T11:15:35.211Z,101286.84
2023-01-29T11:18:53.647Z,101277.81
2023-01-29T11:21:59.480Z,101279.66
2023-01-29T11:25:16.609Z,101279.53
2023-01-29T11:28:39.336Z,101271.44
2023-01-29T11:31:42.573Z,101270.63
2023-01-29T11:35:18.600Z,101268.81
2023-01-29T11:38:29.557Z,101260.13
2023-01-29T11:41:43.909Z,101264.47
2023-01-29T11:44:46.656Z,101254.97
2023-01-29T11:47:53.313Z,101251.09
2023-01-29T11:51:00.578Z,101241.00
2023-01-29T11:54:05.454Z,101236.44
2023-01-29T11:57:24.326Z,101235.66
2023-01-29T12:00:29.984Z,101235.88
2023-01-29T12:03:37.462Z,101235.00
2023-01-29T12:06:44.746Z,101230.53
2023-01-29T12:09:56.466Z,101241.97
2023-01-29T12:13:26.726Z,101234.28
2023-01-29T12:16:57.143Z,101233.72
2023-01-29T12:20:11.687Z,101242.31
2023-01-29T12:23:23.359Z,101230.63
2023-01-29T12:26:33.090Z,101231.09
2023-01-29T12:30:10.947Z,101215.34
2023-01-29T12:33:37.611Z,101212.63
2023-01-29T12:36:53.212Z,101212.13
2023-01-29T12:39:56.518Z,101212.03
2023-01-29T12:43:06.903Z,101218.31
2023-01-29T12:46:34.538Z,101209.28
2023-01-29T12:49:40.040Z,101208.50
2023-01-29T12:52:58.044Z,101211.47
2023-01-29T12:56:09.824Z,101207.13
2023-01-29T12:59:25.009Z,101195.38
2023-01-29T13:02:54.463Z,101201.56
2023-01-29T13:06:02.639Z,101205.41
2023-01-29T13:09:09.823Z,101197.31
2023-01-29T13:12:16.898Z,101200.41
2023-01-29T13:15:26.285Z,101190.69
2023-01-29T13:19:03.323Z,101180.88
2023-01-29T13:22:17.434Z,101179.75
2023-01-29T13:25:21.101Z,101184.19
2023-01-29T13:28:26.778Z,101159.28
2023-01-29T13:31:34.394Z,101165.44
2023-01-29T13:34:49.404Z,101173.34
2023-01-29T13:37:55.078Z,101172.31
2023-01-29T13:41:03.145Z,101175.06
2023-01-29T13:44:09.915Z,101173.91
2023-01-29T13:47:23.874Z,101172.09
2023-01-29T13:50:37.539Z,101157.81
2023-01-29T13:53:41.898Z,101153.81
2023-01-29T13:56:59.403Z,101153.25
2023-01-29T14:00:02.109Z,101149.69
2023-01-29T14:03:12.100Z,101142.38
2023-01-29T14:06:36.743Z,101145.00
2023-01-29T14:09:39.658Z,101149.69
2023-01-29T14:12:43.377Z,101143.88
2023-01-29T14:16:06.930Z,101143.09
2023-01-29T14:19:19.056Z,101154.81
2023-01-29T14:22:28.214Z,101152.06
2023-01-29T14:25:33.604Z,101153.44
2023-01-29T14:28:37.042Z,101150.22
2023-01-29T14:31:43.172Z,101149.53
2023-01-29T14:34:50.231Z,101144.63
2023-01-29T14:37:56.422Z,101148.63
2023-01-29T14:41:14.252Z,101143.59
2023-01-29T14:44:45.118Z,101145.16
2023-01-29T14:47:47.890Z,101138.31
2023-01-29T14:50:54.180Z,101136.41
2023-01-29T14:54:19.425Z,101139.16
2023-01-29T14:57:23.738Z,101132.69
2023-01-29T15:00:39.260Z,101130.50
2023-01-29T15:03:46.566Z,101137.44
2023-01-29T15:07:16.073Z,101143.09
2023-01-29T15:10:25.152Z,101140.59
2023-01-29T15:13:37.617Z,101147.31
2023-01-29T15:16:52.744Z,101154.38
2023-01-29T15:19:56.957Z,101159.63
2023-01-29T15:23:03.324Z,101153.16
2023-01-29T15:26:08.961Z,101148.03
2023-01-29T15:29:26.041Z,101157.75
2023-01-29T15:32:34.571Z,101157.28
2023-01-29T15:35:42.241Z,101173.28
2023-01-29T15:38:45.046Z,101158.31
2023-01-29T15:41:48.770Z,101169.31
2023-01-29T15:44:54.667Z,101169.28
2023-01-29T15:48:08.158Z,101177.72
2023-01-29T15:51:16.597Z,101185.34
2023-01-29T15:54:19.524Z,101174.56
2023-01-29T15:57:26.328Z,101178.56
2023-01-29T16:00:30.629Z,101172.97
2023-01-29T16:03:34.947Z,101170.50
2023-01-29T16:06:40.944Z,101164.44
2023-01-29T16:09:44.018Z,101169.72
2023-01-29T16:12:51.424Z,101176.78
2023-01-29T16:16:01.981Z,101178.72
2023-01-29T16:19:20.864Z,101177.41
2023-01-29T16:22:25.095Z,101176.28
2023-01-29T16:25:30.553Z,101177.47
2023-01-29T16:28:39.644Z,101179.50
2023-01-29T16:31:44.606Z,101199.75
2023-01-29T16:34:49.321Z,101194.69
2023-01-29T16:37:56.938Z,101197.19
2023-01-29T16:41:08.578Z,101206.38
2023-01-29T16:44:17.266Z,101202.44
2023-01-29T16:47:33.210Z,101199.13
2023-01-29T16:50:46.202Z,101197.53
2023-01-29T16:54:02.343Z,101196.00
2023-01-29T16:57:05.277Z,101187.09
2023-01-29T17:00:20.517Z,101197.53
2023-01-29T17:03:26.788Z,101186.59
2023-01-29T17:06:31.652Z,101187.25
2023-01-29T17:09:37.250Z,101173.72
2023-01-29T17:12:40.613Z,101177.94
2023-01-29T17:15:46.048Z,101175.97
2023-01-29T17:18:49.642Z,101158.31
2023-01-29T17:21:52.656Z,101147.72
2023-01-29T17:24:55.753Z,101152.03
2023-01-29T17:28:01.523Z,101150.97
2023-01-29T17:31:07.179Z,101149.06
2023-01-29T17:34:14.903Z,101135.38
2023-01-29T17:37:18.046Z,101138.97
2023-01-29T17:40:36.303Z,101134.38
2023-01-29T17:43:39.324Z,101137.81
2023-01-29T17:46:42.956Z,101131.75
2023-01-29T17:49:46.588Z,101125.44
2023-01-29T17:52:50.095Z,101134.81
2023-01-29T17:55:52.962Z,101132.91
2023-01-29T17:58:56.364Z,101141.34
2023-01-29T18:02:00.041Z,101125.91
2023-01-29T18:05:02.935Z,101121.59
2023-01-29T18:08:06.195Z,101111.69
2023-01-29T18:11:12.785Z,101108.94
2023-01-29T18:14:15.994Z,101118.22
2023-01-29T18:17:22.391Z,101114.00
2023-01-29T18:20:28.186Z,101126.50
2023-01-29T18:23:32.492Z,101116.94
2023-01-29T18:26:36.210Z,101111.69
2023-01-29T18:29:39.172Z,101125.81
2023-01-29T18:32:42.142Z,101116.75
2023-01-29T18:35:45.564Z,101122.22
2023-01-29T18:38:48.653Z,101132.84
2023-01-29T18:41:51.161Z,101124.75
2023-01-29T18:44:54.318Z,101131.22
2023-01-29T18:47:57.739Z,101136.91
2023-01-29T18:51:01.245Z,101133.50
2023-01-29T18:54:04.191Z,101126.69
2023-01-29T18:57:14.180Z,101126.91
2023-01-29T19:00:18.054Z,101125.91
2023-01-29T19:03:21.024Z,101117.44
2023-01-29T19:06:24.110Z,101124.06
2023-01-29T19:09:27.143Z,101111.84
2023-01-29T19:12:29.888Z,101117.97
2023-01-29T19:15:33.764Z,101115.19
2023-01-29T19:18:38.766Z,101113.53
2023-01-29T19:21:41.894Z,101116.38
2023-01-29T19:24:44.774Z,101112.72
2023-01-29T19:27:47.831Z,101098.09
2023-01-29T19:30:50.730Z,101099.84
2023-01-29T19:33:54.210Z,101100.66
2023-01-29T19:36:56.913Z,101092.63
2023-01-29T19:40:00.735Z,101087.72
2023-01-29T19:43:03.404Z,101093.97
2023-01-29T19:46:06.290Z,101087.72
2023-01-29T19:49:10.662Z,101091.34
2023-01-29T19:52:49.856Z,101096.22
2023-01-29T19:56:01.639Z,101103.75
2023-01-29T19:59:05.273Z,101103.16
2023-01-29T20:02:09.037Z,101097.66
2023-01-29T20:05:13.274Z,101104.56
2023-01-29T20:08:16.322Z,101095.41
2023-01-29T20:11:21.696Z,101097.59
2023-01-29T20:14:24.502Z,101106.75
2023-01-29T20:17:28.169Z,101094.75
2023-01-29T20:20:32.901Z,101096.91
2023-01-29T20:23:38.583Z,101094.31
2023-01-29T20:26:41.507Z,101095.97
2023-01-29T20:29:45.585Z,101095.16
2023-01-29T20:32:48.337Z,101093.66
2023-01-29T20:35:59.507Z,101101.28
2023-01-29T20:39:02.280Z,101097.22
2023-01-29T20:42:05.445Z,101096.09
2023-01-29T20:45:08.147Z,101103.72
2023-01-29T20:48:10.763Z,101109.50
2023-01-29T20:51:16.140Z,101095.97
2023-01-29T20:54:18.956Z,101096.88
2023-01-29T20:57:21.754Z,101092.88
2023-01-29T21:00:24.714Z,101103.25
2023-01-29T21:03:27.848Z,101103.81
2023-01-29T21:06:31.106Z,101108.50
2023-01-29T21:09:33.582Z,101103.63
2023-01-29T21:12:36.298Z,101100.03
2023-01-29T21:15:38.867Z,101116.13
2023-01-29T21:18:41.961Z,101098.72
2023-01-29T21:21:44.825Z,101102.81
2023-01-29T21:24:47.653Z,101097.91
2023-01-29T21:27:51.075Z,101098.72
2023-01-29T21:31:10.249Z,101105.88
2023-01-29T21:34:12.728Z,101112.94
2023-01-29T21:37:15.526Z,101094.50
2023-01-29T21:40:18.546Z,101104.19
2023-01-29T21:43:21.449Z,101096.47
2023-01-29T21:46:23.940Z,101090.41
2023-01-29T21:49:27.400Z,101091.78
2023-01-29T21:52:30.303Z,101087.13
2023-01-29T21:55:33.241Z,101084.13
2023-01-29T21:58:36.337Z,101072.69
2023-01-29T22:01:39.310Z,101068.03
2023-01-29T22:04:42.390Z,101057.16
2023-01-29T22:07:45.235Z,101054.94
2023-01-29T22:10:48.019Z,101046.66
2023-01-29T22:13:50.937Z,101042.53
2023-01-29T22:16:53.399Z,101043.34
2023-01-29T22:19:56.422Z,101048.78
2023-01-29T22:23:00.424Z,101052.78
2023-01-29T22:26:04.634Z,101048.00
2023-01-29T22:29:07.339Z,101047.34
2023-01-29T22:32:11.090Z,101038.41
2023-01-29T22:35:13.861Z,101042.53
2023-01-29T22:38:16.705Z,101034.91
2023-01-29T22:41:19.184Z,101030.13
2023-01-29T22:44:22.266Z,101027.72
2023-01-29T22:47:24.664Z,101030.94
2023-01-29T22:50:27.673Z,101034.19
2023-01-29T22:53:30.497Z,101031.16
2023-01-29T22:56:33.230Z,101037.41
2023-01-29T22:59:36.213Z,101033.41
2023-01-29T23:02:39.316Z,101029.97
2023-01-29T23:05:41.890Z,101032.75
2023-01-29T23:08:45.448Z,101032.16
2023-01-29T23:11:48.017Z,101029.09
2023-01-29T23:14:51.104Z,101023.16
2023-01-29T23:17:53.581Z,101023.28
2023-01-29T23:20:57.890Z,101025.44
2023-01-29T23:24:01.354Z,101014.41
2023-01-29T23:27:16.529Z,101024.13
2023-01-29T23:30:19.635Z,101018.75
2023-01-29T23:33:22.761Z,101007.81
2023-01-29T23:36:25.544Z,101005.50
2023-01-29T23:39:28.257Z,101007.66
2023-01-29T23:42:30.840Z,101001.31
2023-01-29T23:45:33.920Z,101007.44
2023-01-29T23:48:36.502Z,101008.25
2023-01-29T23:51:39.689Z,101008.59
2023-01-29T23:54:42.651Z,101002.41
2023-01-29T23:57:45.243Z,101000.97
